Time;durP1;ratioP1;P1;durP2;ratioP2;P2;SDS_P1;SDS_P2;PMS_P1;PMS_P2;Temp;Humidity;BMP_temperature;BMP_pressure;BME280_temperature;BME280_humidity;BME280_pressure;Samples;Min_cycle;Max_cycle;Signal;HPM_P1;HPM_P2
2022/10/13 00:00:18;;;;;;;26.88;14.57;;;9.80;99.90;;;;;;4935265;28;20466;-79
2022/10/13 00:02:44;;;;;;;23.77;13.98;;;9.90;99.90;;;;;;4923408;29;20066;-79
2022/10/13 00:05:10;;;;;;;22.60;14.38;;;9.90;99.90;;;;;;4920781;29;20071;-79
2022/10/13 00:07:36;;;;;;;23.15;13.80;;;9.90;99.90;;;;;;4921058;28;20043;-79
2022/10/13 00:10:04;;;;;;;26.90;13.82;;;9.90;99.90;;;;;;4936768;29;20569;-79
2022/10/13 00:12:33;;;;;;;27.90;14.20;;;9.90;99.90;;;;;;4934274;29;20174;-79
2022/10/13 00:15:00;;;;;;;25.77;14.23;;;9.90;99.90;;;;;;4942902;29;20520;-79
2022/10/13 00:17:35;;;;;;;25.13;13.98;;;9.90;99.90;;;;;;4951730;28;20506;-79
2022/10/13 00:20:06;;;;;;;26.98;13.85;;;9.90;99.90;;;;;;4935966;28;20079;-79
2022/10/13 00:22:38;;;;;;;23.45;13.98;;;9.90;99.90;;;;;;4923379;29;20052;-79
2022/10/13 00:25:08;;;;;;;25.92;14.75;;;9.90;99.90;;;;;;4932869;29;20074;-79
2022/10/13 00:27:34;;;;;;;22.65;14.38;;;9.90;99.90;;;;;;4935301;28;20117;-79
2022/10/13 00:30:01;;;;;;;20.98;14.32;;;9.90;99.90;;;;;;4919254;29;20471;-79
2022/10/13 00:32:27;;;;;;;21.92;13.82;;;9.90;99.90;;;;;;4932754;29;20043;-78
2022/10/13 00:34:57;;;;;;;24.30;14.43;;;9.90;99.90;;;;;;4930694;28;20079;-79
2022/10/13 00:37:26;;;;;;;22.63;13.65;;;9.90;99.90;;;;;;4943943;28;20101;-79
2022/10/13 00:39:56;;;;;;;26.92;14.90;;;9.90;99.90;;;;;;4930006;28;20502;-79
2022/10/13 00:42:25;;;;;;;25.80;14.32;;;9.90;99.90;;;;;;4920383;28;20413;-79
2022/10/13 00:45:04;;;;;;;21.90;13.70;;;9.90;99.90;;;;;;4949871;28;20047;-79
2022/10/13 00:47:39;;;;;;;26.70;14.52;;;9.90;99.90;;;;;;4933355;29;20130;-79
2022/10/13 00:50:15;;;;;;;26.77;14.88;;;9.90;99.90;;;;;;4920229;29;20075;-79
2022/10/13 00:52:42;;;;;;;26.17;14.30;;;9.90;99.90;;;;;;4924800;28;20078;-78
2022/10/13 00:55:14;;;;;;;24.25;14.00;;;10.00;99.90;;;;;;4920716;28;20458;-79
2022/10/13 00:57:42;;;;;;;20.67;13.07;;;10.00;99.90;;;;;;4925292;28;20086;-79
2022/10/13 01:00:11;;;;;;;21.70;13.90;;;10.00;99.90;;;;;;4917129;29;20055;-79
2022/10/13 01:02:41;;;;;;;20.23;12.80;;;10.00;99.90;;;;;;4942376;28;20048;-79
2022/10/13 01:05:09;;;;;;;24.92;12.93;;;10.00;99.90;;;;;;4914774;29;20588;-79
2022/10/13 01:07:48;;;;;;;21.80;13.32;;;10.00;99.90;;;;;;4934856;29;20050;-79
2022/10/13 01:10:23;;;;;;;26.17;14.07;;;9.90;99.90;;;;;;4918997;29;20070;-79
2022/10/13 01:13:11;;;;;;;22.67;13.15;;;10.00;99.90;;;;;;4934035;29;20048;-79
2022/10/13 01:16:20;;;;;;;25.85;14.05;;;10.00;99.90;;;;;;4935440;29;20047;-79
2022/10/13 01:19:01;;;;;;;28.10;14.63;;;10.00;99.90;;;;;;4925155;28;20040;-79
2022/10/13 01:21:39;;;;;;;28.83;15.48;;;10.00;99.90;;;;;;4916821;29;20089;-79
2022/10/13 01:24:31;;;;;;;23.23;15.07;;;10.00;99.90;;;;;;4933391;28;20042;-79
2022/10/13 01:27:54;;;;;;;25.25;14.35;;;9.90;99.90;;;;;;4946033;28;20067;-79
2022/10/13 01:30:21;;;;;;;25.25;14.82;;;9.90;99.90;;;;;;4857741;29;20045;-79
2022/10/13 01:33:37;;;;;;;28.08;15.15;;;9.90;99.90;;;;;;4911625;29;20554;-79
2022/10/13 01:36:54;;;;;;;26.05;14.60;;;9.90;99.90;;;;;;4928380;28;20047;-79
2022/10/13 01:39:43;;;;;;;27.27;14.40;;;9.80;99.90;;;;;;4915919;29;20058;-79
2022/10/13 01:42:26;;;;;;;22.58;14.10;;;9.90;99.90;;;;;;4910867;28;20086;-79
2022/10/13 01:45:09;;;;;;;24.60;14.73;;;9.80;99.90;;;;;;4928975;29;20152;-79
2022/10/13 01:47:37;;;;;;;23.65;14.52;;;9.80;99.90;;;;;;4919476;29;20055;-79
2022/10/13 01:50:05;;;;;;;26.35;15.05;;;9.80;99.90;;;;;;4913611;28;20103;-79
2022/10/13 01:52:37;;;;;;;23.23;14.38;;;9.80;99.90;;;;;;4921077;28;20170;-79
2022/10/13 01:55:10;;;;;;;24.40;14.90;;;9.80;99.90;;;;;;4928988;29;20151;-79
2022/10/13 01:57:42;;;;;;;30.58;15.55;;;9.80;99.90;;;;;;4927100;28;21319;-79
2022/10/13 02:00:19;;;;;;;27.02;15.05;;;9.80;99.90;;;;;;4927066;29;20077;-79
2022/10/13 02:03:09;;;;;;;29.10;16.33;;;9.80;99.90;;;;;;4916988;28;20070;-79
2022/10/13 02:05:49;;;;;;;24.42;15.48;;;9.80;99.90;;;;;;4925625;29;20143;-79
2022/10/13 02:08:26;;;;;;;25.40;15.20;;;9.80;99.90;;;;;;4947951;28;20383;-79
2022/10/13 02:11:14;;;;;;;24.17;15.77;;;9.80;99.90;;;;;;4934919;28;20085;-79
2022/10/13 02:14:00;;;;;;;19.35;14.32;;;9.80;99.90;;;;;;4929431;29;20048;-79
2022/10/13 02:16:33;;;;;;;30.52;15.70;;;9.80;99.90;;;;;;4905870;29;20052;-79
2022/10/13 02:19:03;;;;;;;24.65;15.88;;;9.70;99.90;;;;;;4919708;28;20039;-79
2022/10/13 02:21:34;;;;;;;27.17;15.55;;;9.70;99.90;;;;;;4914422;29;20036;-79
2022/10/13 02:24:04;;;;;;;24.52;16.00;;;9.70;99.90;;;;;;4941648;29;20039;-79
2022/10/13 02:26:32;;;;;;;23.27;15.52;;;9.70;99.90;;;;;;4920675;28;20043;-79
2022/10/13 02:28:59;;;;;;;25.65;16.45;;;9.70;99.90;;;;;;4927406;29;20114;-79
2022/10/13 02:31:25;;;;;;;30.00;16.52;;;9.70;99.90;;;;;;4924216;29;20074;-79
2022/10/13 02:33:56;;;;;;;25.13;15.70;;;9.70;99.90;;;;;;4937278;29;20078;-79
2022/10/13 02:36:22;;;;;;;34.13;16.98;;;9.70;99.90;;;;;;4936398;29;20094;-79
2022/10/13 02:38:48;;;;;;;22.05;15.07;;;9.70;99.90;;;;;;4931339;28;20079;-78
2022/10/13 02:41:14;;;;;;;29.98;16.67;;;9.70;99.90;;;;;;4907953;29;20044;-79
2022/10/13 02:43:43;;;;;;;26.17;16.02;;;9.70;99.90;;;;;;4953657;28;20046;-79
2022/10/13 02:46:08;;;;;;;23.77;15.75;;;9.70;99.90;;;;;;4921069;29;20602;-79
2022/10/13 02:48:35;;;;;;;27.77;15.85;;;9.80;99.90;;;;;;4920900;29;20043;-79
2022/10/13 02:51:01;;;;;;;28.77;15.75;;;9.80;99.90;;;;;;4933413;29;20058;-79
2022/10/13 02:53:29;;;;;;;26.00;15.48;;;9.80;99.90;;;;;;4928624;29;20087;-78
2022/10/13 02:55:55;;;;;;;30.90;15.25;;;9.80;99.90;;;;;;4919847;29;20054;-79
2022/10/13 02:58:24;;;;;;;24.92;14.95;;;9.80;99.90;;;;;;4915593;29;20061;-78
2022/10/13 03:00:50;;;;;;;28.95;15.55;;;9.80;99.90;;;;;;4955669;28;20051;-78
2022/10/13 03:03:17;;;;;;;27.02;16.05;;;9.90;99.90;;;;;;4919943;29;20051;-79
2022/10/13 03:05:44;;;;;;;23.77;15.68;;;9.90;99.90;;;;;;4938392;28;20039;-79
2022/10/13 03:08:11;;;;;;;28.50;15.93;;;9.90;99.90;;;;;;4930545;29;20063;-79
2022/10/13 03:10:39;;;;;;;27.00;16.67;;;9.90;99.90;;;;;;4936160;29;20093;-79
2022/10/13 03:13:08;;;;;;;24.83;16.08;;;9.90;99.90;;;;;;4921466;29;20130;-79
2022/10/13 03:15:34;;;;;;;30.05;16.23;;;9.90;99.90;;;;;;4935065;29;20135;-79
2022/10/13 03:18:03;;;;;;;26.27;15.85;;;10.00;99.90;;;;;;4935228;28;20067;-79
2022/10/13 03:20:29;;;;;;;22.52;14.50;;;10.00;99.90;;;;;;4938123;29;20041;-79
2022/10/13 03:22:55;;;;;;;33.33;17.45;;;10.00;99.90;;;;;;4920687;29;20047;-79
2022/10/13 03:25:25;;;;;;;28.13;17.25;;;10.00;99.90;;;;;;4956890;28;20134;-79
2022/10/13 03:27:55;;;;;;;28.80;17.02;;;10.00;99.90;;;;;;4933822;28;20102;-79
2022/10/13 03:30:21;;;;;;;27.70;17.27;;;10.10;99.90;;;;;;4911832;29;20043;-78
2022/10/13 03:32:47;;;;;;;30.40;17.60;;;10.10;99.90;;;;;;4934116;28;20043;-78
2022/10/13 03:35:12;;;;;;;23.60;17.13;;;10.10;99.90;;;;;;4931925;29;20050;-79
2022/10/13 03:37:38;;;;;;;38.17;18.50;;;10.20;99.90;;;;;;4926963;28;20083;-77
2022/10/13 03:40:05;;;;;;;28.27;18.80;;;10.20;99.90;;;;;;4935298;29;20051;-78
2022/10/13 03:42:30;;;;;;;32.83;18.17;;;10.20;99.90;;;;;;4928880;28;20118;-78
2022/10/13 03:44:56;;;;;;;31.90;19.35;;;10.20;99.90;;;;;;4931150;28;20155;-79
2022/10/13 03:47:22;;;;;;;32.67;19.48;;;10.30;99.90;;;;;;4921079;29;20039;-78
2022/10/13 03:49:47;;;;;;;33.45;20.02;;;10.30;99.90;;;;;;4932551;28;20137;-78
2022/10/13 03:52:13;;;;;;;31.80;19.17;;;10.30;99.90;;;;;;4914882;29;20051;-77
2022/10/13 03:54:39;;;;;;;34.70;19.45;;;10.40;99.90;;;;;;4927767;28;20127;-78
2022/10/13 03:57:04;;;;;;;26.85;18.15;;;10.40;99.90;;;;;;4932359;28;20074;-77
2022/10/13 03:59:30;;;;;;;35.67;19.63;;;10.30;99.90;;;;;;4918648;29;20487;-76
2022/10/13 04:01:55;;;;;;;31.23;19.60;;;10.40;99.90;;;;;;4927057;28;20146;-76
2022/10/13 04:04:21;;;;;;;32.67;19.45;;;10.40;99.90;;;;;;4933342;29;20039;-75
2022/10/13 04:06:46;;;;;;;27.95;19.15;;;10.40;99.90;;;;;;4949144;28;20035;-76
2022/10/13 04:09:12;;;;;;;29.10;18.50;;;10.40;99.90;;;;;;4932320;29;20411;-76
2022/10/13 04:11:38;;;;;;;30.92;18.33;;;10.40;99.90;;;;;;4932353;29;20110;-77
2022/10/13 04:14:03;;;;;;;32.45;19.75;;;10.30;99.90;;;;;;4935167;29;20066;-77
2022/10/13 04:16:30;;;;;;;34.90;20.52;;;10.40;99.90;;;;;;4914882;29;20050;-78
2022/10/13 04:19:02;;;;;;;32.83;19.08;;;10.40;99.90;;;;;;4932141;29;20134;-77
2022/10/13 04:21:30;;;;;;;30.65;19.05;;;10.40;99.90;;;;;;4948057;28;20409;-78
2022/10/13 04:23:57;;;;;;;35.95;20.77;;;10.40;99.90;;;;;;4930750;29;20063;-77
2022/10/13 04:26:25;;;;;;;36.83;21.08;;;10.40;99.90;;;;;;4934639;28;20576;-77
2022/10/13 04:28:54;;;;;;;32.00;20.75;;;10.40;99.90;;;;;;4934265;28;20039;-77
2022/10/13 04:31:23;;;;;;;28.40;19.48;;;10.40;99.90;;;;;;4930957;28;20185;-78
2022/10/13 04:33:50;;;;;;;36.22;22.10;;;10.40;99.90;;;;;;4917200;29;20073;-78
2022/10/13 04:36:17;;;;;;;36.75;21.50;;;10.40;99.90;;;;;;4938465;29;20085;-78
2022/10/13 04:38:43;;;;;;;37.10;21.73;;;10.40;99.90;;;;;;4947909;28;20051;-78
2022/10/13 04:41:11;;;;;;;39.97;22.73;;;10.40;99.90;;;;;;4930735;29;20046;-78
2022/10/13 04:43:36;;;;;;;38.03;22.08;;;10.40;99.90;;;;;;4932036;28;20046;-78
2022/10/13 04:46:13;;;;;;;34.80;22.52;;;10.50;99.90;;;;;;4926231;29;20042;-77
2022/10/13 04:48:39;;;;;;;35.13;20.08;;;10.40;99.90;;;;;;4930884;29;20035;-77
2022/10/13 04:51:07;;;;;;;39.78;21.98;;;10.40;99.90;;;;;;4929551;29;20050;-78
2022/10/13 04:53:33;;;;;;;33.35;22.38;;;10.40;99.90;;;;;;4930116;29;20035;-77
2022/10/13 04:56:01;;;;;;;39.70;22.95;;;10.50;99.90;;;;;;4934679;29;20110;-78
2022/10/13 04:58:27;;;;;;;35.25;21.92;;;10.40;99.90;;;;;;4915259;29;20478;-78
2022/10/13 05:00:52;;;;;;;25.85;19.42;;;10.40;99.90;;;;;;4919076;29;20075;-77
2022/10/13 05:03:18;;;;;;;31.90;20.98;;;10.40;99.90;;;;;;4929756;28;20042;-77
2022/10/13 05:05:44;;;;;;;32.05;21.38;;;10.40;99.90;;;;;;4928623;28;20078;-77
2022/10/13 05:08:09;;;;;;;33.38;20.20;;;10.40;99.90;;;;;;4931678;28;20070;-78
2022/10/13 05:10:35;;;;;;;28.92;19.70;;;10.40;99.90;;;;;;4949611;28;20050;-77
2022/10/13 05:13:00;;;;;;;32.92;19.08;;;10.40;99.90;;;;;;4929579;29;20429;-78
2022/10/13 05:15:26;;;;;;;30.58;19.88;;;10.40;99.90;;;;;;4926877;28;20133;-75
2022/10/13 05:17:52;;;;;;;27.38;18.73;;;10.40;99.90;;;;;;4934970;28;20055;-77
2022/10/13 05:20:17;;;;;;;30.60;20.08;;;10.40;99.90;;;;;;4913083;29;20414;-78
2022/10/13 05:22:43;;;;;;;29.25;19.13;;;10.50;99.90;;;;;;4919927;28;20071;-78
2022/10/13 05:25:09;;;;;;;30.92;19.23;;;10.40;99.90;;;;;;4930436;28;20118;-78
2022/10/13 05:27:35;;;;;;;29.55;19.05;;;10.40;99.90;;;;;;4931764;29;20127;-78
2022/10/13 05:30:00;;;;;;;27.50;18.92;;;10.40;99.90;;;;;;4933949;28;20506;-77
2022/10/13 05:32:26;;;;;;;30.00;21.13;;;10.40;99.90;;;;;;4930171;29;20043;-78
2022/10/13 05:34:52;;;;;;;28.55;18.77;;;10.40;99.90;;;;;;4919918;29;20099;-78
2022/10/13 05:37:17;;;;;;;29.05;18.08;;;10.50;99.90;;;;;;4916220;28;20055;-79
2022/10/13 05:39:43;;;;;;;26.13;17.38;;;10.40;99.90;;;;;;4929253;28;20042;-78
2022/10/13 05:42:09;;;;;;;25.33;17.63;;;10.40;99.90;;;;;;4931508;29;20039;-78
2022/10/13 05:44:36;;;;;;;29.05;19.25;;;10.50;99.90;;;;;;4926849;29;20059;-78
2022/10/13 05:47:02;;;;;;;32.30;20.20;;;10.50;99.90;;;;;;4931336;29;20074;-78
2022/10/13 05:49:28;;;;;;;27.45;20.42;;;10.50;99.90;;;;;;4918357;29;20055;-78
2022/10/13 05:52:02;;;;;;;28.95;19.40;;;10.50;99.90;;;;;;4925188;29;20039;-79
2022/10/13 05:54:42;;;;;;;31.88;19.60;;;10.50;99.90;;;;;;4917403;28;20044;-79
2022/10/13 05:57:19;;;;;;;30.00;18.77;;;10.50;99.90;;;;;;4918817;28;20042;-78
2022/10/13 05:59:55;;;;;;;30.50;19.25;;;10.50;99.90;;;;;;4938098;28;20540;-78
2022/10/13 06:02:23;;;;;;;27.30;19.35;;;10.50;99.90;;;;;;4939216;28;20050;-78
2022/10/13 06:04:51;;;;;;;30.65;18.27;;;10.50;99.90;;;;;;4929982;29;20495;-78
2022/10/13 06:07:17;;;;;;;35.28;19.25;;;10.50;99.90;;;;;;4934883;29;20074;-79
2022/10/13 06:09:43;;;;;;;29.63;18.25;;;10.50;99.90;;;;;;4916823;29;20510;-79
2022/10/13 06:12:09;;;;;;;28.40;18.35;;;10.50;99.90;;;;;;4935379;28;20045;-78
2022/10/13 06:14:35;;;;;;;27.98;19.08;;;10.50;99.90;;;;;;4933395;29;20087;-79
2022/10/13 06:17:00;;;;;;;28.35;19.15;;;10.50;99.90;;;;;;4932662;28;20043;-79
2022/10/13 06:19:26;;;;;;;26.90;18.00;;;10.50;99.90;;;;;;4933996;28;20043;-77
2022/10/13 06:21:52;;;;;;;30.08;18.60;;;10.50;99.90;;;;;;4917858;28;20042;-77
2022/10/13 06:24:17;;;;;;;23.23;17.42;;;10.60;99.90;;;;;;4922657;28;20070;-77
2022/10/13 06:26:43;;;;;;;26.67;18.35;;;10.60;99.90;;;;;;4926646;29;20047;-79
2022/10/13 06:29:09;;;;;;;26.60;18.50;;;10.60;99.90;;;;;;4927217;28;20658;-78
2022/10/13 06:31:34;;;;;;;22.60;17.77;;;10.60;99.90;;;;;;4924882;28;20052;-78
2022/10/13 06:34:00;;;;;;;22.00;16.83;;;10.60;99.90;;;;;;4929938;28;20137;-78
2022/10/13 06:36:25;;;;;;;25.30;18.05;;;10.60;99.90;;;;;;4928668;28;20455;-78
2022/10/13 06:38:51;;;;;;;33.40;19.92;;;10.60;99.90;;;;;;4931103;28;20126;-77
2022/10/13 06:41:17;;;;;;;45.95;22.50;;;10.70;99.90;;;;;;4914651;28;20062;-76
2022/10/13 06:43:42;;;;;;;40.28;22.95;;;10.70;99.90;;;;;;4935810;28;20043;-76
2022/10/13 06:46:09;;;;;;;38.85;22.85;;;10.70;99.90;;;;;;4920785;28;20119;-78
2022/10/13 06:48:35;;;;;;;36.30;22.27;;;10.70;99.90;;;;;;4928609;28;20054;-75
2022/10/13 06:51:01;;;;;;;39.08;22.65;;;10.70;99.90;;;;;;4923910;28;20050;-78
2022/10/13 06:53:27;;;;;;;42.55;22.88;;;10.70;99.90;;;;;;4931815;28;20051;-77
2022/10/13 06:55:57;;;;;;;37.13;21.38;;;10.70;99.90;;;;;;4920961;28;20069;-75
2022/10/13 06:58:23;;;;;;;35.20;22.60;;;10.70;99.90;;;;;;4920862;29;20557;-77
2022/10/13 07:00:49;;;;;;;38.65;23.48;;;10.80;99.90;;;;;;4945323;29;20043;-75
2022/10/13 07:03:14;;;;;;;41.80;24.30;;;10.80;99.90;;;;;;4940454;28;20817;-76
2022/10/13 07:05:40;;;;;;;40.83;24.27;;;10.80;99.90;;;;;;4920890;28;20415;-76
2022/10/13 07:08:05;;;;;;;41.22;24.40;;;10.80;99.90;;;;;;4927062;28;20062;-76
2022/10/13 07:10:31;;;;;;;42.80;23.52;;;10.80;99.90;;;;;;4931221;28;20139;-75
2022/10/13 07:12:57;;;;;;;41.05;24.42;;;10.80;99.90;;;;;;4934572;28;20113;-76
2022/10/13 07:15:23;;;;;;;40.47;23.77;;;10.90;99.90;;;;;;4932447;28;20405;-76
2022/10/13 07:17:52;;;;;;;39.90;22.88;;;10.80;99.90;;;;;;4934576;28;20043;-76
2022/10/13 07:20:19;;;;;;;43.53;25.20;;;10.80;99.90;;;;;;4927987;28;20039;-75
2022/10/13 07:22:44;;;;;;;44.15;25.27;;;10.90;99.90;;;;;;4927342;28;20035;-76
2022/10/13 07:25:10;;;;;;;42.90;26.15;;;10.90;99.90;;;;;;4935560;28;20044;-76
2022/10/13 07:27:37;;;;;;;44.15;24.58;;;10.90;99.90;;;;;;4926353;28;20047;-76
2022/10/13 07:30:03;;;;;;;46.80;24.25;;;11.00;99.90;;;;;;4928192;28;22251;-76
2022/10/13 07:32:31;;;;;;;41.00;25.45;;;11.00;99.90;;;;;;4930178;29;20039;-76
2022/10/13 07:34:56;;;;;;;52.97;26.50;;;11.00;99.90;;;;;;4928183;28;20458;-76
2022/10/13 07:37:22;;;;;;;44.58;26.13;;;11.00;99.90;;;;;;4930767;28;20062;-75
2022/10/13 07:39:48;;;;;;;41.55;25.02;;;11.10;99.90;;;;;;4928143;28;20046;-76
2022/10/13 07:42:13;;;;;;;46.63;26.73;;;11.10;99.90;;;;;;4920273;28;20035;-76
2022/10/13 07:44:39;;;;;;;46.22;26.58;;;11.20;99.90;;;;;;4929845;28;20066;-76
2022/10/13 07:47:05;;;;;;;44.95;26.35;;;11.20;99.90;;;;;;4934965;29;20074;-76
2022/10/13 07:49:30;;;;;;;46.72;26.33;;;11.20;99.90;;;;;;4928332;28;20042;-73
2022/10/13 07:51:56;;;;;;;48.13;26.60;;;11.30;99.90;;;;;;4924161;28;20773;-76
2022/10/13 07:54:22;;;;;;;46.17;26.75;;;11.30;99.90;;;;;;4924663;28;20043;-76
2022/10/13 07:56:53;;;;;;;50.95;35.22;;;11.40;99.90;;;;;;4929228;28;20046;-76
2022/10/13 07:59:19;;;;;;;42.92;27.23;;;11.40;99.90;;;;;;4928278;28;20059;-76
2022/10/13 08:01:45;;;;;;;50.10;27.75;;;11.50;99.90;;;;;;4927518;28;20532;-75
2022/10/13 08:04:10;;;;;;;48.13;27.50;;;11.60;99.90;;;;;;4931179;28;20402;-76
2022/10/13 08:06:36;;;;;;;46.75;27.92;;;11.70;99.90;;;;;;4937531;28;20046;-77
2022/10/13 08:09:03;;;;;;;49.00;28.02;;;11.80;99.90;;;;;;4929300;28;20050;-74
2022/10/13 08:11:29;;;;;;;48.60;28.30;;;11.90;99.90;;;;;;4928113;28;20418;-76
2022/10/13 08:13:59;;;;;;;50.38;27.58;;;11.90;99.90;;;;;;4943788;28;20047;-76
2022/10/13 08:16:26;;;;;;;47.47;28.33;;;12.00;99.90;;;;;;4931693;28;20043;-76
2022/10/13 08:18:52;;;;;;;48.30;28.67;;;12.10;99.90;;;;;;4928475;28;20074;-76
2022/10/13 08:21:18;;;;;;;43.70;26.65;;;12.20;99.90;;;;;;4928501;28;20110;-75
2022/10/13 08:23:45;;;;;;;45.22;27.75;;;12.20;99.90;;;;;;4926427;28;20501;-76
2022/10/13 08:26:20;;;;;;;46.70;25.40;;;12.30;99.90;;;;;;4926412;28;20039;-76
2022/10/13 08:28:45;;;;;;;43.70;26.20;;;12.30;99.90;;;;;;4927919;28;20101;-75
2022/10/13 08:31:11;;;;;;;43.85;26.05;;;12.40;99.90;;;;;;4925214;28;20051;-77
2022/10/13 08:33:37;;;;;;;45.42;27.38;;;12.40;99.90;;;;;;4925912;28;20050;-76
2022/10/13 08:36:03;;;;;;;42.60;26.10;;;12.50;99.90;;;;;;4930620;28;20043;-74
2022/10/13 08:38:29;;;;;;;42.05;27.25;;;12.60;99.90;;;;;;4924756;28;20098;-74
2022/10/13 08:40:54;;;;;;;45.72;26.40;;;12.70;99.90;;;;;;4911707;28;20043;-75
2022/10/13 08:43:22;;;;;;;42.63;25.63;;;12.70;99.90;;;;;;4923448;28;20047;-74
2022/10/13 08:45:51;;;;;;;41.72;25.73;;;12.80;99.90;;;;;;4927865;28;20094;-74
2022/10/13 08:48:21;;;;;;;36.15;23.65;;;12.90;99.90;;;;;;4909270;28;20070;-75
2022/10/13 08:50:51;;;;;;;42.60;25.48;;;12.90;99.90;;;;;;4925122;28;20090;-75
2022/10/13 08:53:40;;;;;;;37.78;23.83;;;13.00;99.90;;;;;;4923215;28;20051;-75
2022/10/13 08:56:23;;;;;;;44.13;25.70;;;12.90;99.90;;;;;;4923980;28;20055;-76
2022/10/13 08:58:50;;;;;;;43.38;25.73;;;13.00;99.90;;;;;;4923549;28;20042;-76
2022/10/13 09:01:29;;;;;;;42.60;25.98;;;13.00;99.90;;;;;;4923814;28;20075;-76
2022/10/13 09:04:31;;;;;;;48.13;26.05;;;13.00;99.90;;;;;;4939013;28;20042;-76
2022/10/13 09:07:23;;;;;;;46.75;25.55;;;13.10;99.90;;;;;;4929083;28;20074;-76
2022/10/13 09:09:51;;;;;;;42.60;25.05;;;13.10;99.90;;;;;;4915481;29;20043;-77
2022/10/13 09:12:20;;;;;;;38.63;23.65;;;13.10;99.90;;;;;;4924619;28;20134;-77
2022/10/13 09:15:04;;;;;;;38.33;24.73;;;13.10;99.90;;;;;;4926508;29;20044;-77
2022/10/13 09:17:31;;;;;;;44.22;25.17;;;13.00;99.90;;;;;;4924105;29;20038;-77
2022/10/13 09:19:58;;;;;;;43.35;25.77;;;13.00;99.90;;;;;;4920956;28;20414;-76
2022/10/13 09:22:26;;;;;;;39.28;24.85;;;13.10;99.90;;;;;;4928671;28;20130;-76
2022/10/13 09:25:07;;;;;;;46.20;26.63;;;13.10;99.90;;;;;;4944416;28;20415;-76
2022/10/13 09:27:56;;;;;;;40.72;25.98;;;13.10;99.90;;;;;;4929053;29;20036;-76
2022/10/13 09:30:41;;;;;;;39.40;24.90;;;13.10;99.90;;;;;;4927372;28;20046;-76
2022/10/13 09:33:12;;;;;;;43.05;25.90;;;13.10;99.90;;;;;;4929417;28;20047;-76
2022/10/13 09:35:45;;;;;;;40.67;26.52;;;13.10;99.90;;;;;;4932318;29;20122;-76
2022/10/13 09:38:20;;;;;;;39.80;25.90;;;13.20;99.90;;;;;;4926849;28;20153;-76
2022/10/13 09:41:11;;;;;;;34.47;23.50;;;13.20;99.90;;;;;;4928258;29;20054;-75
2022/10/13 09:43:58;;;;;;;38.08;24.05;;;13.20;99.90;;;;;;4934835;28;20134;-76
2022/10/13 09:46:32;;;;;;;34.50;23.77;;;13.20;99.90;;;;;;4923523;29;20495;-76
2022/10/13 09:49:27;;;;;;;38.80;24.05;;;13.40;99.90;;;;;;4932056;28;20038;-76
2022/10/13 09:52:06;;;;;;;40.13;23.35;;;13.30;99.90;;;;;;4924094;28;20458;-77
2022/10/13 09:54:51;;;;;;;41.67;24.23;;;13.30;99.90;;;;;;4929358;28;20095;-76
2022/10/13 09:57:44;;;;;;;37.75;23.30;;;13.30;99.90;;;;;;4919749;29;20141;-76
2022/10/13 10:00:21;;;;;;;32.47;22.60;;;13.20;99.90;;;;;;4948468;28;20509;-75
2022/10/13 10:02:52;;;;;;;37.63;23.60;;;13.20;99.90;;;;;;4931712;28;20043;-76
2022/10/13 10:05:26;;;;;;;39.78;23.52;;;13.20;99.90;;;;;;4932614;28;20050;-75
2022/10/13 10:07:51;;;;;;;39.25;25.00;;;13.20;99.90;;;;;;4931469;28;20043;-76
2022/10/13 10:10:34;;;;;;;37.30;24.80;;;13.20;99.90;;;;;;4931471;28;20051;-76
2022/10/13 10:13:01;;;;;;;39.85;24.38;;;13.20;99.90;;;;;;4948332;28;20047;-76
2022/10/13 10:15:46;;;;;;;39.78;24.67;;;13.20;99.90;;;;;;4931810;28;20054;-75
2022/10/13 10:18:17;;;;;;;44.78;26.98;;;13.20;99.90;;;;;;4920488;28;20129;-75
2022/10/13 10:20:47;;;;;;;53.97;28.58;;;13.20;99.90;;;;;;4937097;28;20059;-76
2022/10/13 10:23:27;;;;;;;43.08;27.30;;;13.20;99.90;;;;;;4924536;28;20043;-75
2022/10/13 10:25:58;;;;;;;43.30;27.52;;;13.20;99.90;;;;;;4928039;28;20032;-76
2022/10/13 10:28:48;;;;;;;41.55;27.98;;;13.20;99.90;;;;;;4921498;28;20039;-76
2022/10/13 10:31:41;;;;;;;42.25;27.20;;;13.20;99.90;;;;;;4916531;28;20103;-77
2022/10/13 10:34:28;;;;;;;41.60;28.15;;;13.30;99.90;;;;;;4922067;29;20070;-76
2022/10/13 10:37:03;;;;;;;47.00;29.45;;;13.30;99.90;;;;;;4924436;28;20058;-74
2022/10/13 10:40:16;;;;;;;43.92;28.63;;;13.30;99.90;;;;;;4913081;28;20058;-74
2022/10/13 10:43:20;;;;;;;56.22;30.38;;;13.30;99.90;;;;;;4876456;28;20050;-74
2022/10/13 10:45:47;;;;;;;56.60;31.70;;;13.20;99.90;;;;;;4888563;29;20051;-74
2022/10/13 10:48:23;;;;;;;49.05;30.92;;;13.20;99.90;;;;;;4917699;28;20058;-74
2022/10/13 10:50:51;;;;;;;60.20;33.58;;;13.20;99.90;;;;;;4925957;28;20047;-73
2022/10/13 10:53:16;;;;;;;50.90;31.67;;;13.20;99.90;;;;;;4930047;28;20109;-74
2022/10/13 10:56:18;;;;;;;53.42;33.55;;;13.20;99.90;;;;;;4926562;28;20055;-73
2022/10/13 10:58:49;;;;;;;58.85;35.00;;;13.30;99.90;;;;;;4922626;28;20043;-74
2022/10/13 11:01:21;;;;;;;59.92;36.03;;;13.30;99.90;;;;;;4917055;28;20043;-75
2022/10/13 11:04:00;;;;;;;60.63;36.83;;;13.40;99.90;;;;;;4924140;28;20573;-75
2022/10/13 11:06:37;;;;;;;49.85;34.70;;;13.40;99.90;;;;;;4925378;28;20397;-76
2022/10/13 11:09:04;;;;;;;59.00;36.80;;;13.40;99.90;;;;;;4940322;29;20557;-75
2022/10/13 11:11:39;;;;;;;62.03;37.15;;;13.50;99.90;;;;;;4927606;28;20050;-75
2022/10/13 11:14:04;;;;;;;64.60;36.72;;;13.60;99.90;;;;;;4929850;29;20058;-75
2022/10/13 11:16:57;;;;;;;61.10;35.85;;;13.70;99.90;;;;;;4935066;29;20055;-75
2022/10/13 11:19:38;;;;;;;58.15;36.92;;;13.70;99.90;;;;;;4925809;29;20126;-76
2022/10/13 11:22:04;;;;;;;62.30;37.67;;;13.70;99.90;;;;;;4928469;29;20139;-76
2022/10/13 11:24:33;;;;;;;58.63;36.70;;;13.70;99.90;;;;;;4954735;28;20122;-76
2022/10/13 11:27:10;;;;;;;54.95;36.67;;;13.70;99.90;;;;;;4931544;29;20372;-76
2022/10/13 11:29:57;;;;;;;58.35;37.15;;;13.80;99.90;;;;;;4929224;29;20139;-76
2022/10/13 11:32:40;;;;;;;51.70;34.92;;;13.80;99.90;;;;;;4931275;28;20051;-77
2022/10/13 11:35:08;;;;;;;55.28;35.75;;;13.80;99.90;;;;;;4926581;28;20055;-77
2022/10/13 11:37:56;;;;;;;66.20;36.22;;;13.80;99.90;;;;;;4923618;29;20047;-76
2022/10/13 11:40:32;;;;;;;51.05;35.25;;;13.80;99.90;;;;;;4910126;29;20043;-76
2022/10/13 11:43:08;;;;;;;52.83;35.35;;;13.80;99.90;;;;;;4934147;29;20470;-77
2022/10/13 11:46:01;;;;;;;54.45;35.88;;;13.80;99.90;;;;;;4931709;29;20119;-77
2022/10/13 11:48:56;;;;;;;55.72;36.58;;;13.80;99.90;;;;;;4935439;29;20047;-77
2022/10/13 11:51:48;;;;;;;56.65;36.85;;;13.80;99.90;;;;;;4944329;28;20063;-77
2022/10/13 11:54:31;;;;;;;54.28;36.08;;;13.80;99.90;;;;;;4917298;29;20047;-77
2022/10/13 11:56:58;;;;;;;55.00;36.75;;;13.70;99.90;;;;;;4928473;29;20064;-77
2022/10/13 11:59:30;;;;;;;52.72;35.53;;;13.80;99.90;;;;;;4936495;28;20142;-77
2022/10/13 12:02:04;;;;;;;53.72;36.08;;;13.70;99.90;;;;;;4929309;29;20490;-77
2022/10/13 12:04:30;;;;;;;55.22;35.72;;;13.70;99.90;;;;;;4909485;29;20054;-76
2022/10/13 12:07:02;;;;;;;50.75;36.53;;;13.70;99.90;;;;;;4927187;28;20191;-77
2022/10/13 12:09:30;;;;;;;58.75;36.85;;;13.60;99.90;;;;;;4925080;29;20055;-77
2022/10/13 12:12:03;;;;;;;56.97;36.63;;;13.60;99.90;;;;;;4926540;28;20130;-77
2022/10/13 12:14:38;;;;;;;57.22;38.17;;;13.60;99.90;;;;;;4927583;29;20099;-76
2022/10/13 12:17:28;;;;;;;57.58;36.90;;;13.60;99.90;;;;;;4930525;29;20062;-76
2022/10/13 12:19:56;;;;;;;54.33;37.30;;;13.60;99.90;;;;;;4934685;29;20048;-76
2022/10/13 12:22:22;;;;;;;60.60;38.13;;;13.60;99.90;;;;;;4924724;28;20111;-76
2022/10/13 12:25:04;;;;;;;56.50;38.88;;;13.50;99.90;;;;;;4928752;29;20039;-75
2022/10/13 12:27:40;;;;;;;54.83;37.67;;;13.50;99.90;;;;;;4944112;28;20095;-76
2022/10/13 12:30:21;;;;;;;57.75;37.97;;;13.50;99.90;;;;;;4929727;29;20142;-76
2022/10/13 12:32:56;;;;;;;69.47;41.13;;;13.50;99.90;;;;;;4948778;28;20126;-75
2022/10/13 12:35:27;;;;;;;54.30;34.58;;;13.60;99.90;;;;;;4926047;28;20122;-75
2022/10/13 12:37:55;;;;;;;42.90;27.60;;;13.50;99.90;;;;;;4925977;28;20055;-74
2022/10/13 12:40:21;;;;;;;40.00;27.85;;;13.50;99.90;;;;;;4922741;29;20051;-74
2022/10/13 12:42:48;;;;;;;43.72;30.55;;;13.50;99.90;;;;;;4926381;28;20035;-74
2022/10/13 12:45:15;;;;;;;44.78;31.65;;;13.50;99.90;;;;;;4936014;29;20379;-74
2022/10/13 12:47:44;;;;;;;40.35;29.08;;;13.40;99.90;;;;;;4933321;28;20051;-74
2022/10/13 12:50:28;;;;;;;37.60;28.58;;;13.40;99.90;;;;;;4918117;29;20486;-75